Sigas Ingrid — VRCQ6 — position and weather

sailwx.info

Track history (hours):
 
Tides and Currents Weather Stations Pressure Air Temp Water Temp Dewpoint Dewpoint Depression Visibility Wind Speed Wind Dir Waves Ship Positions

Sigas Ingrid

Last reported at 2014-Jul-30 05:32 UTC. Time now 2014-Jul-30 07:06 UTC.
Position N 40°48' E 014°20'.

Length 100 m; draft 5.4 m.

Type: Ship (hazmat cat B). MMSI: 477658800.

Date/timePositionNaut miles runAvg speedWind from/ knotsBaromVisibWave heightAir tempDewpointWater temp
2014-Jul-30 05:32N 40°48' E 014°20'0 0.0
2014-Jul-30 04:20N 40°48' E 014°20'0 0.0
2014-Jul-30 03:29N 40°48' E 014°20'0 0.1
2014-Jul-30 02:14N 40°48' E 014°20'0 0.0
2014-Jul-30 01:29N 40°48' E 014°20'1 1.3
2014-Jul-30 00:28N 40°47' E 014°19'1011.0
2014-Jul-29 23:33N 40°39' E 014°10'1313.1
2014-Jul-29 22:33N 40°29' E 014°01'2813.0
2014-Jul-29 20:23N 40°05' E 013°40'1112.8
2014-Jul-29 19:33N 39°56' E 013°33'1212.4
2014-Jul-29 18:33N 39°46' E 013°24'7312.2
2014-Jul-29 12:33N 38°44' E 012°32'9511.3
2014-Jul-29 04:07N 37°10' E 012°18'711.7
2014-Jul-29 03:33N 37°03' E 012°20'1211.6
2014-Jul-29 02:33N 36°52' E 012°22'1111.4
2014-Jul-29 01:33N 36°43' E 012°30'1212.1
2014-Jul-29 00:33N 36°31' E 012°35'1212.3
2014-Jul-28 23:33N 36°19' E 012°39'1212.5
2014-Jul-28 22:33N 36°07' E 012°41'1412.5
2014-Jul-28 21:24N 35°53' E 012°44'1112.7
2014-Jul-28 20:33N 35°42' E 012°45'1312.7
2014-Jul-28 19:30N 35°29' E 012°48'1212.7
2014-Jul-28 18:33N 35°17' E 012°50'1312.5
2014-Jul-28 17:33N 35°04' E 012°52'1111.3
2014-Jul-28 16:33N 34°58' E 012°41'1212.1
2014-Jul-28 15:33N 34°53' E 012°28'1211.7
2014-Jul-28 14:33N 34°48' E 012°15'1211.5
2014-Jul-28 13:33N 34°43' E 012°02'1111.4
2014-Jul-28 12:33N 34°38' E 011°50'95 2.0
2014-Jul-26 12:33N 33°55' E 010°07'4 0.3
2014-Jul-26 00:25N 33°58' E 010°09'0 0.0
2014-Jul-25 23:28N 33°58' E 010°09'0 0.0
2014-Jul-25 20:31N 33°58' E 010°09'0 0.1
2014-Jul-25 19:29N 33°58' E 010°09'4 4.8
2014-Jul-25 18:33N 33°59' E 010°15'1110.6
2014-Jul-25 17:33N 34°04' E 010°26'1212.2
2014-Jul-25 16:33N 34°09' E 010°40'1512.2
2014-Jul-25 15:20N 34°16' E 010°56'911.7
2014-Jul-25 14:32N 34°20' E 011°06'1511.9
2014-Jul-25 13:16N 34°27' E 011°22'812.0
2014-Jul-25 12:33N 34°31' E 011°31'1212.3
2014-Jul-25 11:33N 34°36' E 011°45'1212.3
2014-Jul-25 10:33N 34°42' E 011°58'1312.2
2014-Jul-25 09:27N 34°47' E 012°13'1111.9
2014-Jul-25 08:33N 34°52' E 012°25'1211.9
2014-Jul-25 07:33N 34°57' E 012°38'1211.7
2014-Jul-25 06:33N 35°02' E 012°51'1211.7
2014-Jul-25 05:33N 35°08' E 013°03'1211.8
2014-Jul-25 04:33N 35°13' E 013°16'1211.8
2014-Jul-25 03:33N 35°18' E 013°29'1111.5
2014-Jul-25 02:33N 35°23' E 013°42'1311.0
2014-Jul-25 01:21N 35°29' E 013°57'1011.1
2014-Jul-25 00:30N 35°34' E 014°07'1111.3
2014-Jul-24 23:32N 35°38' E 014°19'1211.5
2014-Jul-24 22:29N 35°42' E 014°33'1010.9
2014-Jul-24 21:33N 35°50' E 014°41'1212.0
2014-Jul-24 20:33N 36°01' E 014°47'1212.1
2014-Jul-24 19:33N 36°12' E 014°54'1211.8
2014-Jul-24 18:33N 36°23' E 014°59'  
Track history (hours):
 
Tides and Currents Weather Stations Pressure Air Temp Water Temp Dewpoint Dewpoint Depression Visibility Wind Speed Wind Dir Waves Ship Positions

Sigas Ingrid

Last reported at 2014-Jul-30 05:32 UTC. Time now 2014-Jul-30 07:06 UTC.
Position N 40°48' E 014°20'.

Length 100 m; draft 5.4 m.

Type: Ship (hazmat cat B). MMSI: 477658800.

Date/timePositionNaut miles runAvg speedWind from/ knotsBaromVisibWave heightAir tempDewpointWater temp
2014-Jul-30 05:32N 40°48' E 014°20'0 0.0
2014-Jul-30 04:20N 40°48' E 014°20'0 0.0
2014-Jul-30 03:29N 40°48' E 014°20'0 0.1
2014-Jul-30 02:14N 40°48' E 014°20'0 0.0
2014-Jul-30 01:29N 40°48' E 014°20'1 1.3
2014-Jul-30 00:28N 40°47' E 014°19'1011.0
2014-Jul-29 23:33N 40°39' E 014°10'1313.1
2014-Jul-29 22:33N 40°29' E 014°01'2813.0
2014-Jul-29 20:23N 40°05' E 013°40'1112.8
2014-Jul-29 19:33N 39°56' E 013°33'1212.4
2014-Jul-29 18:33N 39°46' E 013°24'7312.2
2014-Jul-29 12:33N 38°44' E 012°32'9511.3
2014-Jul-29 04:07N 37°10' E 012°18'711.7
2014-Jul-29 03:33N 37°03' E 012°20'1211.6
2014-Jul-29 02:33N 36°52' E 012°22'1111.4
2014-Jul-29 01:33N 36°43' E 012°30'1212.1
2014-Jul-29 00:33N 36°31' E 012°35'1212.3
2014-Jul-28 23:33N 36°19' E 012°39'1212.5
2014-Jul-28 22:33N 36°07' E 012°41'1412.5
2014-Jul-28 21:24N 35°53' E 012°44'1112.7
2014-Jul-28 20:33N 35°42' E 012°45'1312.7
2014-Jul-28 19:30N 35°29' E 012°48'1212.7
2014-Jul-28 18:33N 35°17' E 012°50'1312.5
2014-Jul-28 17:33N 35°04' E 012°52'1111.3
2014-Jul-28 16:33N 34°58' E 012°41'1212.1
2014-Jul-28 15:33N 34°53' E 012°28'1211.7
2014-Jul-28 14:33N 34°48' E 012°15'1211.5
2014-Jul-28 13:33N 34°43' E 012°02'1111.4
2014-Jul-28 12:33N 34°38' E 011°50'95 2.0
2014-Jul-26 12:33N 33°55' E 010°07'4 0.3
2014-Jul-26 00:25N 33°58' E 010°09'0 0.0
2014-Jul-25 23:28N 33°58' E 010°09'0 0.0
2014-Jul-25 20:31N 33°58' E 010°09'0 0.1
2014-Jul-25 19:29N 33°58' E 010°09'4 4.8
2014-Jul-25 18:33N 33°59' E 010°15'1110.6
2014-Jul-25 17:33N 34°04' E 010°26'1212.2
2014-Jul-25 16:33N 34°09' E 010°40'1512.2
2014-Jul-25 15:20N 34°16' E 010°56'911.7
2014-Jul-25 14:32N 34°20' E 011°06'1511.9
2014-Jul-25 13:16N 34°27' E 011°22'812.0
2014-Jul-25 12:33N 34°31' E 011°31'1212.3
2014-Jul-25 11:33N 34°36' E 011°45'1212.3
2014-Jul-25 10:33N 34°42' E 011°58'1312.2
2014-Jul-25 09:27N 34°47' E 012°13'1111.9
2014-Jul-25 08:33N 34°52' E 012°25'1211.9
2014-Jul-25 07:33N 34°57' E 012°38'1211.7
2014-Jul-25 06:33N 35°02' E 012°51'1211.7
2014-Jul-25 05:33N 35°08' E 013°03'1211.8
2014-Jul-25 04:33N 35°13' E 013°16'1211.8
2014-Jul-25 03:33N 35°18' E 013°29'1111.5
2014-Jul-25 02:33N 35°23' E 013°42'1311.0
2014-Jul-25 01:21N 35°29' E 013°57'1011.1
2014-Jul-25 00:30N 35°34' E 014°07'1111.3
2014-Jul-24 23:32N 35°38' E 014°19'1211.5
2014-Jul-24 22:29N 35°42' E 014°33'1010.9
2014-Jul-24 21:33N 35°50' E 014°41'1212.0
2014-Jul-24 20:33N 36°01' E 014°47'1212.1
2014-Jul-24 19:33N 36°12' E 014°54'1211.8
2014-Jul-24 18:33N 36°23' E 014°59'  

Dump ship's entire track history